sensor_id;sensor_type;location;lat;lon;timestamp;P1;durP1;ratioP1;P2;durP2;ratioP2
44774;SDS011;31340;51.402;0.016;2022-08-24T00:01:23;5.45;;;3.55;;
44774;SDS011;31340;51.402;0.016;2022-08-24T00:03:54;7.43;;;4.05;;
44774;SDS011;31340;51.402;0.016;2022-08-24T00:06:27;5.95;;;3.50;;
44774;SDS011;31340;51.402;0.016;2022-08-24T00:08:56;5.85;;;3.67;;
44774;SDS011;31340;51.402;0.016;2022-08-24T00:11:25;9.32;;;4.22;;
44774;SDS011;31340;51.402;0.016;2022-08-24T00:13:53;7.90;;;4.25;;
44774;SDS011;31340;51.402;0.016;2022-08-24T00:16:21;7.20;;;4.45;;
44774;SDS011;31340;51.402;0.016;2022-08-24T00:18:49;6.22;;;4.13;;
44774;SDS011;31340;51.402;0.016;2022-08-24T00:21:17;8.48;;;4.60;;
44774;SDS011;31340;51.402;0.016;2022-08-24T00:23:45;8.45;;;4.20;;
44774;SDS011;31340;51.402;0.016;2022-08-24T00:26:15;6.80;;;4.25;;
44774;SDS011;31340;51.402;0.016;2022-08-24T00:28:55;8.75;;;4.00;;
44774;SDS011;31340;51.402;0.016;2022-08-24T00:31:24;7.30;;;4.07;;
44774;SDS011;31340;51.402;0.016;2022-08-24T00:33:52;7.00;;;3.90;;
44774;SDS011;31340;51.402;0.016;2022-08-24T00:36:21;8.13;;;3.58;;
44774;SDS011;31340;51.402;0.016;2022-08-24T00:38:52;5.95;;;3.63;;
44774;SDS011;31340;51.402;0.016;2022-08-24T00:41:19;6.22;;;3.40;;
44774;SDS011;31340;51.402;0.016;2022-08-24T00:43:52;5.55;;;3.13;;
44774;SDS011;31340;51.402;0.016;2022-08-24T00:46:23;4.78;;;2.70;;
44774;SDS011;31340;51.402;0.016;2022-08-24T00:49:11;4.80;;;2.67;;
44774;SDS011;31340;51.402;0.016;2022-08-24T00:54:33;4.80;;;2.70;;
44774;SDS011;31340;51.402;0.016;2022-08-24T00:57:10;4.25;;;2.60;;
44774;SDS011;31340;51.402;0.016;2022-08-24T00:59:46;2.90;;;2.33;;
44774;SDS011;31340;51.402;0.016;2022-08-24T01:02:26;6.63;;;2.85;;
44774;SDS011;31340;51.402;0.016;2022-08-24T01:04:58;4.13;;;2.70;;
44774;SDS011;31340;51.402;0.016;2022-08-24T01:07:29;6.25;;;3.00;;
44774;SDS011;31340;51.402;0.016;2022-08-24T01:09:59;4.30;;;2.33;;
44774;SDS011;31340;51.402;0.016;2022-08-24T01:12:32;3.00;;;2.70;;
44774;SDS011;31340;51.402;0.016;2022-08-24T01:15:02;4.32;;;2.55;;
44774;SDS011;31340;51.402;0.016;2022-08-24T01:20:18;4.72;;;2.40;;
44774;SDS011;31340;51.402;0.016;2022-08-24T01:25:27;3.38;;;2.50;;
44774;SDS011;31340;51.402;0.016;2022-08-24T01:27:57;3.70;;;2.13;;
44774;SDS011;31340;51.402;0.016;2022-08-24T01:30:30;3.83;;;2.20;;
44774;SDS011;31340;51.402;0.016;2022-08-24T01:33:05;5.57;;;2.00;;
44774;SDS011;31340;51.402;0.016;2022-08-24T01:35:35;5.43;;;2.10;;
44774;SDS011;31340;51.402;0.016;2022-08-24T01:38:07;3.25;;;1.95;;
44774;SDS011;31340;51.402;0.016;2022-08-24T01:40:39;3.33;;;2.20;;
44774;SDS011;31340;51.402;0.016;2022-08-24T01:43:11;5.35;;;2.03;;
44774;SDS011;31340;51.402;0.016;2022-08-24T01:45:42;3.47;;;1.50;;
44774;SDS011;31340;51.402;0.016;2022-08-24T01:48:10;3.60;;;1.92;;
44774;SDS011;31340;51.402;0.016;2022-08-24T01:50:40;5.00;;;2.00;;
44774;SDS011;31340;51.402;0.016;2022-08-24T01:53:09;4.15;;;1.90;;
44774;SDS011;31340;51.402;0.016;2022-08-24T01:55:36;3.92;;;2.20;;
44774;SDS011;31340;51.402;0.016;2022-08-24T01:58:04;2.78;;;1.88;;
44774;SDS011;31340;51.402;0.016;2022-08-24T02:00:32;3.35;;;2.17;;
44774;SDS011;31340;51.402;0.016;2022-08-24T02:03:02;4.03;;;2.10;;
44774;SDS011;31340;51.402;0.016;2022-08-24T02:05:31;3.40;;;2.10;;
44774;SDS011;31340;51.402;0.016;2022-08-24T02:07:59;3.55;;;2.20;;
44774;SDS011;31340;51.402;0.016;2022-08-24T02:10:27;3.40;;;2.40;;
44774;SDS011;31340;51.402;0.016;2022-08-24T02:12:56;2.75;;;2.15;;
44774;SDS011;31340;51.402;0.016;2022-08-24T02:15:35;3.78;;;2.30;;
44774;SDS011;31340;51.402;0.016;2022-08-24T02:18:09;4.75;;;2.47;;
44774;SDS011;31340;51.402;0.016;2022-08-24T02:20:42;4.88;;;2.55;;
44774;SDS011;31340;51.402;0.016;2022-08-24T02:23:11;3.90;;;2.72;;
44774;SDS011;31340;51.402;0.016;2022-08-24T02:25:38;4.90;;;2.75;;
44774;SDS011;31340;51.402;0.016;2022-08-24T02:28:06;5.20;;;2.67;;
44774;SDS011;31340;51.402;0.016;2022-08-24T02:30:34;4.85;;;2.97;;
44774;SDS011;31340;51.402;0.016;2022-08-24T02:33:01;5.13;;;3.17;;
44774;SDS011;31340;51.402;0.016;2022-08-24T02:35:30;5.50;;;3.47;;
44774;SDS011;31340;51.402;0.016;2022-08-24T02:37:57;6.57;;;3.38;;
44774;SDS011;31340;51.402;0.016;2022-08-24T02:40:26;3.90;;;3.00;;
44774;SDS011;31340;51.402;0.016;2022-08-24T02:42:55;5.18;;;3.15;;
44774;SDS011;31340;51.402;0.016;2022-08-24T02:45:24;4.00;;;3.15;;
44774;SDS011;31340;51.402;0.016;2022-08-24T02:47:51;4.88;;;3.53;;
44774;SDS011;31340;51.402;0.016;2022-08-24T02:50:21;4.20;;;2.88;;
44774;SDS011;31340;51.402;0.016;2022-08-24T02:52:49;6.03;;;3.50;;
44774;SDS011;31340;51.402;0.016;2022-08-24T02:55:17;3.95;;;3.03;;
44774;SDS011;31340;51.402;0.016;2022-08-24T02:57:48;6.28;;;3.75;;
44774;SDS011;31340;51.402;0.016;2022-08-24T03:00:17;5.85;;;3.47;;
44774;SDS011;31340;51.402;0.016;2022-08-24T03:02:53;5.40;;;3.95;;
44774;SDS011;31340;51.402;0.016;2022-08-24T03:05:21;6.53;;;3.83;;
44774;SDS011;31340;51.402;0.016;2022-08-24T03:07:49;5.07;;;3.58;;
44774;SDS011;31340;51.402;0.016;2022-08-24T03:10:18;5.15;;;4.18;;
44774;SDS011;31340;51.402;0.016;2022-08-24T03:12:46;5.00;;;4.28;;
44774;SDS011;31340;51.402;0.016;2022-08-24T03:15:18;5.63;;;3.90;;
44774;SDS011;31340;51.402;0.016;2022-08-24T03:17:50;6.53;;;3.70;;
44774;SDS011;31340;51.402;0.016;2022-08-24T03:20:18;8.25;;;4.30;;
44774;SDS011;31340;51.402;0.016;2022-08-24T03:22:47;9.23;;;4.10;;
44774;SDS011;31340;51.402;0.016;2022-08-24T03:25:16;4.63;;;3.60;;
44774;SDS011;31340;51.402;0.016;2022-08-24T03:30:16;10.10;;;4.68;;
44774;SDS011;31340;51.402;0.016;2022-08-24T03:32:45;4.40;;;3.30;;
44774;SDS011;31340;51.402;0.016;2022-08-24T03:35:14;8.35;;;4.03;;
44774;SDS011;31340;51.402;0.016;2022-08-24T03:37:42;5.05;;;3.55;;
44774;SDS011;31340;51.402;0.016;2022-08-24T03:40:10;6.97;;;4.20;;
44774;SDS011;31340;51.402;0.016;2022-08-24T03:42:54;6.97;;;4.10;;
44774;SDS011;31340;51.402;0.016;2022-08-24T03:45:21;8.40;;;3.78;;
44774;SDS011;31340;51.402;0.016;2022-08-24T03:47:49;5.45;;;3.55;;
44774;SDS011;31340;51.402;0.016;2022-08-24T03:50:17;9.45;;;4.07;;
44774;SDS011;31340;51.402;0.016;2022-08-24T03:52:46;8.43;;;4.15;;
44774;SDS011;31340;51.402;0.016;2022-08-24T03:55:14;8.07;;;4.38;;
44774;SDS011;31340;51.402;0.016;2022-08-24T03:57:41;7.30;;;4.68;;
44774;SDS011;31340;51.402;0.016;2022-08-24T04:00:10;9.88;;;5.20;;
44774;SDS011;31340;51.402;0.016;2022-08-24T04:02:45;6.70;;;4.25;;
44774;SDS011;31340;51.402;0.016;2022-08-24T04:05:19;6.80;;;4.00;;
44774;SDS011;31340;51.402;0.016;2022-08-24T04:07:47;8.40;;;4.68;;
44774;SDS011;31340;51.402;0.016;2022-08-24T04:10:14;6.03;;;4.43;;
44774;SDS011;31340;51.402;0.016;2022-08-24T04:12:42;10.30;;;5.00;;
44774;SDS011;31340;51.402;0.016;2022-08-24T04:15:12;8.38;;;4.93;;
44774;SDS011;31340;51.402;0.016;2022-08-24T04:17:41;9.82;;;4.72;;
44774;SDS011;31340;51.402;0.016;2022-08-24T04:20:09;8.50;;;4.50;;
44774;SDS011;31340;51.402;0.016;2022-08-24T04:22:39;7.78;;;3.88;;
44774;SDS011;31340;51.402;0.016;2022-08-24T04:25:07;9.70;;;4.65;;
44774;SDS011;31340;51.402;0.016;2022-08-24T04:27:38;10.60;;;4.57;;
44774;SDS011;31340;51.402;0.016;2022-08-24T04:32:57;10.02;;;4.35;;
44774;SDS011;31340;51.402;0.016;2022-08-24T04:35:25;9.05;;;4.50;;
44774;SDS011;31340;51.402;0.016;2022-08-24T04:37:52;8.43;;;4.15;;
44774;SDS011;31340;51.402;0.016;2022-08-24T04:40:20;7.68;;;3.95;;
44774;SDS011;31340;51.402;0.016;2022-08-24T04:42:50;9.18;;;4.15;;
44774;SDS011;31340;51.402;0.016;2022-08-24T04:45:18;7.60;;;4.78;;
44774;SDS011;31340;51.402;0.016;2022-08-24T04:47:46;6.75;;;3.90;;
44774;SDS011;31340;51.402;0.016;2022-08-24T04:50:14;5.18;;;3.30;;
44774;SDS011;31340;51.402;0.016;2022-08-24T04:52:42;6.45;;;4.32;;
44774;SDS011;31340;51.402;0.016;2022-08-24T04:55:12;10.75;;;4.20;;
44774;SDS011;31340;51.402;0.016;2022-08-24T04:57:39;10.20;;;4.50;;
44774;SDS011;31340;51.402;0.016;2022-08-24T05:00:07;13.98;;;5.30;;
44774;SDS011;31340;51.402;0.016;2022-08-24T05:02:42;5.82;;;3.90;;
44774;SDS011;31340;51.402;0.016;2022-08-24T05:05:12;12.93;;;4.80;;
44774;SDS011;31340;51.402;0.016;2022-08-24T05:07:40;9.35;;;4.80;;
44774;SDS011;31340;51.402;0.016;2022-08-24T05:10:12;8.40;;;4.75;;
44774;SDS011;31340;51.402;0.016;2022-08-24T05:12:40;10.98;;;4.47;;
44774;SDS011;31340;51.402;0.016;2022-08-24T05:15:10;11.95;;;5.47;;
44774;SDS011;31340;51.402;0.016;2022-08-24T05:17:42;9.88;;;5.43;;
44774;SDS011;31340;51.402;0.016;2022-08-24T05:20:18;9.90;;;5.95;;
44774;SDS011;31340;51.402;0.016;2022-08-24T05:22:46;8.40;;;6.10;;
44774;SDS011;31340;51.402;0.016;2022-08-24T05:25:13;8.55;;;5.82;;
44774;SDS011;31340;51.402;0.016;2022-08-24T05:27:41;15.27;;;6.25;;
44774;SDS011;31340;51.402;0.016;2022-08-24T05:30:09;15.05;;;6.57;;
44774;SDS011;31340;51.402;0.016;2022-08-24T05:32:37;13.52;;;6.95;;
44774;SDS011;31340;51.402;0.016;2022-08-24T05:35:05;14.77;;;6.63;;
44774;SDS011;31340;51.402;0.016;2022-08-24T05:37:34;14.15;;;7.90;;
44774;SDS011;31340;51.402;0.016;2022-08-24T05:40:13;16.15;;;7.78;;
44774;SDS011;31340;51.402;0.016;2022-08-24T05:42:47;10.93;;;6.75;;
44774;SDS011;31340;51.402;0.016;2022-08-24T05:45:15;10.68;;;6.20;;
44774;SDS011;31340;51.402;0.016;2022-08-24T05:47:43;15.05;;;7.47;;
44774;SDS011;31340;51.402;0.016;2022-08-24T05:50:37;12.35;;;6.43;;
44774;SDS011;31340;51.402;0.016;2022-08-24T05:53:06;14.15;;;7.30;;
44774;SDS011;31340;51.402;0.016;2022-08-24T05:55:36;13.38;;;5.97;;
44774;SDS011;31340;51.402;0.016;2022-08-24T05:58:04;13.98;;;6.10;;
44774;SDS011;31340;51.402;0.016;2022-08-24T06:00:32;14.35;;;6.03;;
44774;SDS011;31340;51.402;0.016;2022-08-24T06:02:59;13.10;;;5.72;;
44774;SDS011;31340;51.402;0.016;2022-08-24T06:05:27;10.45;;;5.72;;
44774;SDS011;31340;51.402;0.016;2022-08-24T06:07:56;13.27;;;5.43;;
44774;SDS011;31340;51.402;0.016;2022-08-24T06:10:25;10.27;;;5.30;;
44774;SDS011;31340;51.402;0.016;2022-08-24T06:13:04;9.50;;;5.43;;
44774;SDS011;31340;51.402;0.016;2022-08-24T06:15:32;10.40;;;5.10;;
44774;SDS011;31340;51.402;0.016;2022-08-24T06:18:01;10.30;;;4.35;;
44774;SDS011;31340;51.402;0.016;2022-08-24T06:20:30;8.75;;;4.25;;
44774;SDS011;31340;51.402;0.016;2022-08-24T06:22:58;10.35;;;3.97;;
44774;SDS011;31340;51.402;0.016;2022-08-24T06:25:37;6.50;;;3.90;;
44774;SDS011;31340;51.402;0.016;2022-08-24T06:28:25;9.20;;;4.18;;
44774;SDS011;31340;51.402;0.016;2022-08-24T06:31:04;6.40;;;3.35;;
44774;SDS011;31340;51.402;0.016;2022-08-24T06:33:33;5.55;;;3.80;;
44774;SDS011;31340;51.402;0.016;2022-08-24T06:36:02;6.75;;;3.55;;
44774;SDS011;31340;51.402;0.016;2022-08-24T06:38:30;6.55;;;3.50;;
44774;SDS011;31340;51.402;0.016;2022-08-24T06:40:58;9.30;;;3.90;;
44774;SDS011;31340;51.402;0.016;2022-08-24T06:43:26;7.20;;;3.97;;
44774;SDS011;31340;51.402;0.016;2022-08-24T06:45:56;5.90;;;3.20;;
44774;SDS011;31340;51.402;0.016;2022-08-24T06:48:31;9.30;;;3.90;;
44774;SDS011;31340;51.402;0.016;2022-08-24T06:51:00;8.20;;;3.35;;
44774;SDS011;31340;51.402;0.016;2022-08-24T06:53:27;5.47;;;3.65;;
44774;SDS011;31340;51.402;0.016;2022-08-24T06:55:57;6.18;;;3.50;;
44774;SDS011;31340;51.402;0.016;2022-08-24T06:58:26;9.25;;;3.80;;
44774;SDS011;31340;51.402;0.016;2022-08-24T07:00:55;4.88;;;3.45;;
44774;SDS011;31340;51.402;0.016;2022-08-24T07:03:23;7.50;;;3.50;;
44774;SDS011;31340;51.402;0.016;2022-08-24T07:06:00;8.38;;;3.70;;
44774;SDS011;31340;51.402;0.016;2022-08-24T07:08:39;4.18;;;3.17;;
44774;SDS011;31340;51.402;0.016;2022-08-24T07:11:10;5.65;;;3.55;;
44774;SDS011;31340;51.402;0.016;2022-08-24T07:13:47;4.50;;;3.40;;
44774;SDS011;31340;51.402;0.016;2022-08-24T07:16:16;5.50;;;3.33;;
44774;SDS011;31340;51.402;0.016;2022-08-24T07:18:48;5.88;;;3.05;;
44774;SDS011;31340;51.402;0.016;2022-08-24T07:21:19;7.80;;;3.53;;
44774;SDS011;31340;51.402;0.016;2022-08-24T07:23:49;6.30;;;3.65;;
44774;SDS011;31340;51.402;0.016;2022-08-24T07:26:22;7.93;;;4.35;;
44774;SDS011;31340;51.402;0.016;2022-08-24T07:28:57;7.32;;;3.53;;
44774;SDS011;31340;51.402;0.016;2022-08-24T07:31:41;7.45;;;3.78;;
44774;SDS011;31340;51.402;0.016;2022-08-24T07:34:24;7.75;;;3.92;;
44774;SDS011;31340;51.402;0.016;2022-08-24T07:36:54;5.75;;;3.67;;
44774;SDS011;31340;51.402;0.016;2022-08-24T07:39:23;11.25;;;3.95;;
44774;SDS011;31340;51.402;0.016;2022-08-24T07:41:52;7.18;;;4.55;;
44774;SDS011;31340;51.402;0.016;2022-08-24T07:44:39;7.78;;;4.63;;
44774;SDS011;31340;51.402;0.016;2022-08-24T07:47:08;7.18;;;4.10;;
44774;SDS011;31340;51.402;0.016;2022-08-24T07:49:55;9.75;;;3.97;;
44774;SDS011;31340;51.402;0.016;2022-08-24T07:52:24;14.18;;;4.03;;
44774;SDS011;31340;51.402;0.016;2022-08-24T07:54:54;5.55;;;3.58;;
44774;SDS011;31340;51.402;0.016;2022-08-24T07:57:23;8.77;;;3.42;;
44774;SDS011;31340;51.402;0.016;2022-08-24T07:59:51;10.38;;;4.00;;
44774;SDS011;31340;51.402;0.016;2022-08-24T08:02:19;7.60;;;4.07;;
44774;SDS011;31340;51.402;0.016;2022-08-24T08:04:50;7.57;;;3.47;;
44774;SDS011;31340;51.402;0.016;2022-08-24T08:07:20;8.27;;;3.27;;
44774;SDS011;31340;51.402;0.016;2022-08-24T08:09:49;7.00;;;3.55;;
44774;SDS011;31340;51.402;0.016;2022-08-24T08:12:16;6.43;;;3.85;;
44774;SDS011;31340;51.402;0.016;2022-08-24T08:14:53;5.75;;;2.83;;
44774;SDS011;31340;51.402;0.016;2022-08-24T08:17:23;7.30;;;3.10;;
44774;SDS011;31340;51.402;0.016;2022-08-24T08:19:51;5.85;;;2.80;;
44774;SDS011;31340;51.402;0.016;2022-08-24T08:22:19;5.15;;;2.83;;
44774;SDS011;31340;51.402;0.016;2022-08-24T08:25:47;23.70;;;3.40;;
44774;SDS011;31340;51.402;0.016;2022-08-24T08:28:23;9.18;;;2.78;;
44774;SDS011;31340;51.402;0.016;2022-08-24T08:31:02;10.45;;;2.50;;
44774;SDS011;31340;51.402;0.016;2022-08-24T08:33:33;6.70;;;2.38;;
44774;SDS011;31340;51.402;0.016;2022-08-24T08:36:06;4.65;;;2.50;;
44774;SDS011;31340;51.402;0.016;2022-08-24T08:38:42;3.33;;;2.25;;
44774;SDS011;31340;51.402;0.016;2022-08-24T08:41:18;4.63;;;2.25;;
44774;SDS011;31340;51.402;0.016;2022-08-24T08:49:57;11.55;;;2.67;;
44774;SDS011;31340;51.402;0.016;2022-08-24T08:55:56;5.75;;;2.20;;
44774;SDS011;31340;51.402;0.016;2022-08-24T09:01:14;3.83;;;2.35;;
44774;SDS011;31340;51.402;0.016;2022-08-24T09:10:08;4.10;;;1.80;;
44774;SDS011;31340;51.402;0.016;2022-08-24T09:16:24;6.35;;;2.30;;
44774;SDS011;31340;51.402;0.016;2022-08-24T11:01:10;5.47;;;2.85;;
44774;SDS011;31340;51.402;0.016;2022-08-24T11:03:48;6.93;;;3.00;;
44774;SDS011;31340;51.402;0.016;2022-08-24T11:09:10;4.63;;;2.70;;
44774;SDS011;31340;51.402;0.016;2022-08-24T11:11:47;5.78;;;3.50;;
44774;SDS011;31340;51.402;0.016;2022-08-24T11:14:25;7.10;;;3.15;;
44774;SDS011;31340;51.402;0.016;2022-08-24T11:17:14;3.70;;;2.60;;
44774;SDS011;31340;51.402;0.016;2022-08-24T11:19:44;5.45;;;2.80;;
44774;SDS011;31340;51.402;0.016;2022-08-24T11:25:12;3.83;;;2.55;;
44774;SDS011;31340;51.402;0.016;2022-08-24T11:27:47;3.88;;;2.45;;
44774;SDS011;31340;51.402;0.016;2022-08-24T11:32:45;5.32;;;2.60;;
44774;SDS011;31340;51.402;0.016;2022-08-24T11:35:20;3.92;;;2.88;;
44774;SDS011;31340;51.402;0.016;2022-08-24T11:38:08;3.00;;;2.20;;
44774;SDS011;31340;51.402;0.016;2022-08-24T11:40:56;2.47;;;2.28;;
44774;SDS011;31340;51.402;0.016;2022-08-24T11:43:53;4.30;;;2.40;;
44774;SDS011;31340;51.402;0.016;2022-08-24T11:51:40;3.38;;;2.50;;
44774;SDS011;31340;51.402;0.016;2022-08-24T11:54:32;3.47;;;1.95;;
44774;SDS011;31340;51.402;0.016;2022-08-24T11:57:20;2.70;;;1.83;;
44774;SDS011;31340;51.402;0.016;2022-08-24T12:00:09;3.05;;;2.10;;
44774;SDS011;31340;51.402;0.016;2022-08-24T12:08:21;2.88;;;1.63;;
44774;SDS011;31340;51.402;0.016;2022-08-24T12:11:14;2.35;;;1.42;;
44774;SDS011;31340;51.402;0.016;2022-08-24T12:13:54;3.55;;;1.70;;
44774;SDS011;31340;51.402;0.016;2022-08-24T12:16:30;2.50;;;1.52;;
44774;SDS011;31340;51.402;0.016;2022-08-24T12:19:05;8.15;;;1.52;;
44774;SDS011;31340;51.402;0.016;2022-08-24T13:33:47;36.43;;;4.07;;
44774;SDS011;31340;51.402;0.016;2022-08-24T13:42:07;20.60;;;2.22;;
44774;SDS011;31340;51.402;0.016;2022-08-24T13:50:37;10.20;;;1.88;;
44774;SDS011;31340;51.402;0.016;2022-08-24T13:55:55;9.23;;;2.10;;
44774;SDS011;31340;51.402;0.016;2022-08-24T14:06:54;3.60;;;1.75;;
44774;SDS011;31340;51.402;0.016;2022-08-24T14:12:11;3.20;;;1.27;;
44774;SDS011;31340;51.402;0.016;2022-08-24T14:17:49;1.85;;;1.70;;
44774;SDS011;31340;51.402;0.016;2022-08-24T14:34:48;8.23;;;1.20;;
44774;SDS011;31340;51.402;0.016;2022-08-24T14:37:27;2.67;;;0.90;;
44774;SDS011;31340;51.402;0.016;2022-08-24T14:40:15;10.48;;;1.30;;
44774;SDS011;31340;51.402;0.016;2022-08-24T14:48:25;5.30;;;1.55;;
44774;SDS011;31340;51.402;0.016;2022-08-24T14:54:05;1.20;;;1.00;;
44774;SDS011;31340;51.402;0.016;2022-08-24T15:05:02;1.23;;;0.80;;
44774;SDS011;31340;51.402;0.016;2022-08-24T15:07:54;0.90;;;0.90;;
44774;SDS011;31340;51.402;0.016;2022-08-24T15:10:28;1.45;;;1.00;;
44774;SDS011;31340;51.402;0.016;2022-08-24T15:16:24;3.92;;;1.80;;
44774;SDS011;31340;51.402;0.016;2022-08-24T15:32:43;1.55;;;1.10;;
44774;SDS011;31340;51.402;0.016;2022-08-24T15:35:26;1.38;;;0.90;;
44774;SDS011;31340;51.402;0.016;2022-08-24T15:40:49;0.82;;;0.80;;
44774;SDS011;31340;51.402;0.016;2022-08-24T15:43:28;0.85;;;0.82;;
44774;SDS011;31340;51.402;0.016;2022-08-24T15:45:56;1.83;;;0.90;;
44774;SDS011;31340;51.402;0.016;2022-08-24T15:48:24;2.17;;;0.70;;
44774;SDS011;31340;51.402;0.016;2022-08-24T15:50:53;0.90;;;0.90;;
44774;SDS011;31340;51.402;0.016;2022-08-24T15:53:38;0.90;;;0.90;;
44774;SDS011;31340;51.402;0.016;2022-08-24T15:58:47;1.92;;;0.90;;
44774;SDS011;31340;51.402;0.016;2022-08-24T16:04:12;1.50;;;0.90;;
44774;SDS011;31340;51.402;0.016;2022-08-24T16:07:00;2.15;;;1.00;;
44774;SDS011;31340;51.402;0.016;2022-08-24T16:11:58;1.90;;;1.30;;
44774;SDS011;31340;51.402;0.016;2022-08-24T16:14:43;1.67;;;1.50;;
44774;SDS011;31340;51.402;0.016;2022-08-24T16:19:57;1.95;;;0.90;;
44774;SDS011;31340;51.402;0.016;2022-08-24T16:22:32;1.60;;;1.40;;
44774;SDS011;31340;51.402;0.016;2022-08-24T16:30:23;2.45;;;1.70;;
44774;SDS011;31340;51.402;0.016;2022-08-24T16:33:01;1.50;;;1.30;;
44774;SDS011;31340;51.402;0.016;2022-08-24T16:35:32;4.30;;;1.83;;
44774;SDS011;31340;51.402;0.016;2022-08-24T16:37:59;3.45;;;1.50;;
44774;SDS011;31340;51.402;0.016;2022-08-24T16:40:27;1.48;;;1.30;;
44774;SDS011;31340;51.402;0.016;2022-08-24T16:42:57;2.47;;;1.23;;
44774;SDS011;31340;51.402;0.016;2022-08-24T16:45:25;2.10;;;0.95;;
44774;SDS011;31340;51.402;0.016;2022-08-24T16:47:52;1.48;;;1.15;;
44774;SDS011;31340;51.402;0.016;2022-08-24T16:50:20;3.38;;;1.20;;
44774;SDS011;31340;51.402;0.016;2022-08-24T16:52:53;2.45;;;1.10;;
44774;SDS011;31340;51.402;0.016;2022-08-24T16:55:21;2.97;;;2.42;;
44774;SDS011;31340;51.402;0.016;2022-08-24T16:57:48;2.10;;;1.30;;
44774;SDS011;31340;51.402;0.016;2022-08-24T17:00:16;1.27;;;1.08;;
44774;SDS011;31340;51.402;0.016;2022-08-24T17:02:47;1.17;;;1.10;;
44774;SDS011;31340;51.402;0.016;2022-08-24T17:05:15;1.35;;;1.25;;
44774;SDS011;31340;51.402;0.016;2022-08-24T17:07:44;5.47;;;2.00;;
44774;SDS011;31340;51.402;0.016;2022-08-24T17:10:13;3.35;;;2.20;;
44774;SDS011;31340;51.402;0.016;2022-08-24T17:12:43;3.03;;;2.15;;
44774;SDS011;31340;51.402;0.016;2022-08-24T17:15:11;2.35;;;1.20;;
44774;SDS011;31340;51.402;0.016;2022-08-24T17:17:39;1.73;;;1.30;;
44774;SDS011;31340;51.402;0.016;2022-08-24T17:20:07;1.50;;;1.20;;
44774;SDS011;31340;51.402;0.016;2022-08-24T17:22:36;1.40;;;1.10;;
44774;SDS011;31340;51.402;0.016;2022-08-24T17:25:04;3.65;;;2.10;;
44774;SDS011;31340;51.402;0.016;2022-08-24T17:27:32;2.85;;;1.17;;
44774;SDS011;31340;51.402;0.016;2022-08-24T17:30:00;1.58;;;1.15;;
44774;SDS011;31340;51.402;0.016;2022-08-24T17:32:30;1.98;;;1.52;;
44774;SDS011;31340;51.402;0.016;2022-08-24T17:34:57;1.60;;;1.50;;
44774;SDS011;31340;51.402;0.016;2022-08-24T17:37:25;4.93;;;1.70;;
44774;SDS011;31340;51.402;0.016;2022-08-24T17:39:54;3.13;;;1.88;;
44774;SDS011;31340;51.402;0.016;2022-08-24T17:42:23;6.75;;;4.03;;
44774;SDS011;31340;51.402;0.016;2022-08-24T17:45:11;2.17;;;1.70;;
44774;SDS011;31340;51.402;0.016;2022-08-24T17:47:40;6.70;;;3.88;;
44774;SDS011;31340;51.402;0.016;2022-08-24T17:50:11;2.53;;;1.92;;
44774;SDS011;31340;51.402;0.016;2022-08-24T17:52:40;1.88;;;1.50;;
44774;SDS011;31340;51.402;0.016;2022-08-24T17:55:09;1.48;;;1.38;;
44774;SDS011;31340;51.402;0.016;2022-08-24T18:00:14;1.80;;;1.13;;
44774;SDS011;31340;51.402;0.016;2022-08-24T18:02:42;2.15;;;1.00;;
44774;SDS011;31340;51.402;0.016;2022-08-24T18:05:10;2.03;;;1.17;;
44774;SDS011;31340;51.402;0.016;2022-08-24T18:07:42;1.85;;;1.10;;
44774;SDS011;31340;51.402;0.016;2022-08-24T18:10:23;1.38;;;1.13;;
44774;SDS011;31340;51.402;0.016;2022-08-24T18:12:54;2.95;;;1.15;;
44774;SDS011;31340;51.402;0.016;2022-08-24T18:15:24;2.15;;;0.90;;
44774;SDS011;31340;51.402;0.016;2022-08-24T18:18:05;3.10;;;1.13;;
44774;SDS011;31340;51.402;0.016;2022-08-24T18:20:36;1.05;;;0.90;;
44774;SDS011;31340;51.402;0.016;2022-08-24T18:23:06;3.10;;;0.90;;
44774;SDS011;31340;51.402;0.016;2022-08-24T18:25:45;1.40;;;1.00;;
44774;SDS011;31340;51.402;0.016;2022-08-24T18:28:15;2.55;;;1.10;;
44774;SDS011;31340;51.402;0.016;2022-08-24T18:33:28;2.50;;;1.00;;
44774;SDS011;31340;51.402;0.016;2022-08-24T18:38:40;1.58;;;1.08;;
44774;SDS011;31340;51.402;0.016;2022-08-24T18:41:08;4.70;;;1.30;;
44774;SDS011;31340;51.402;0.016;2022-08-24T18:43:36;1.13;;;0.90;;
44774;SDS011;31340;51.402;0.016;2022-08-24T18:46:04;1.73;;;1.00;;
44774;SDS011;31340;51.402;0.016;2022-08-24T18:48:32;1.10;;;1.00;;
44774;SDS011;31340;51.402;0.016;2022-08-24T18:51:00;1.10;;;0.73;;
44774;SDS011;31340;51.402;0.016;2022-08-24T18:53:28;2.78;;;1.00;;
44774;SDS011;31340;51.402;0.016;2022-08-24T18:55:56;1.52;;;1.05;;
44774;SDS011;31340;51.402;0.016;2022-08-24T18:58:29;3.42;;;1.00;;
44774;SDS011;31340;51.402;0.016;2022-08-24T19:00:56;2.55;;;1.10;;
44774;SDS011;31340;51.402;0.016;2022-08-24T19:03:24;2.90;;;1.27;;
44774;SDS011;31340;51.402;0.016;2022-08-24T19:05:52;0.98;;;0.95;;
44774;SDS011;31340;51.402;0.016;2022-08-24T19:08:19;1.88;;;1.00;;
44774;SDS011;31340;51.402;0.016;2022-08-24T19:10:48;1.98;;;0.90;;
44774;SDS011;31340;51.402;0.016;2022-08-24T19:13:17;1.65;;;1.20;;
44774;SDS011;31340;51.402;0.016;2022-08-24T19:15:46;1.88;;;1.20;;
44774;SDS011;31340;51.402;0.016;2022-08-24T19:18:15;1.10;;;1.00;;
44774;SDS011;31340;51.402;0.016;2022-08-24T19:20:45;1.33;;;0.98;;
44774;SDS011;31340;51.402;0.016;2022-08-24T19:23:17;3.83;;;1.73;;
44774;SDS011;31340;51.402;0.016;2022-08-24T19:25:47;1.85;;;1.52;;
44774;SDS011;31340;51.402;0.016;2022-08-24T19:28:15;1.60;;;1.02;;
44774;SDS011;31340;51.402;0.016;2022-08-24T19:30:43;1.23;;;1.10;;
44774;SDS011;31340;51.402;0.016;2022-08-24T19:33:13;2.72;;;1.10;;
44774;SDS011;31340;51.402;0.016;2022-08-24T19:35:49;2.72;;;1.20;;
44774;SDS011;31340;51.402;0.016;2022-08-24T19:38:17;1.98;;;1.33;;
44774;SDS011;31340;51.402;0.016;2022-08-24T19:40:51;1.83;;;1.30;;
44774;SDS011;31340;51.402;0.016;2022-08-24T19:43:21;1.87;;;1.10;;
44774;SDS011;31340;51.402;0.016;2022-08-24T19:45:53;2.30;;;1.17;;
44774;SDS011;31340;51.402;0.016;2022-08-24T19:48:28;3.58;;;1.20;;
44774;SDS011;31340;51.402;0.016;2022-08-24T19:51:02;5.68;;;1.30;;
44774;SDS011;31340;51.402;0.016;2022-08-24T19:53:31;1.88;;;1.40;;
44774;SDS011;31340;51.402;0.016;2022-08-24T19:56:02;2.03;;;1.23;;
44774;SDS011;31340;51.402;0.016;2022-08-24T20:01:21;2.17;;;1.15;;
44774;SDS011;31340;51.402;0.016;2022-08-24T20:03:50;3.78;;;1.50;;
44774;SDS011;31340;51.402;0.016;2022-08-24T20:06:18;2.25;;;1.35;;
44774;SDS011;31340;51.402;0.016;2022-08-24T20:08:49;3.38;;;1.50;;
44774;SDS011;31340;51.402;0.016;2022-08-24T20:11:17;2.25;;;1.27;;
44774;SDS011;31340;51.402;0.016;2022-08-24T20:13:46;2.20;;;1.38;;
44774;SDS011;31340;51.402;0.016;2022-08-24T20:16:16;3.45;;;1.70;;
44774;SDS011;31340;51.402;0.016;2022-08-24T20:18:45;2.50;;;1.58;;
44774;SDS011;31340;51.402;0.016;2022-08-24T20:21:14;6.15;;;2.13;;
44774;SDS011;31340;51.402;0.016;2022-08-24T20:23:42;3.00;;;2.08;;
44774;SDS011;31340;51.402;0.016;2022-08-24T20:26:10;3.80;;;2.00;;
44774;SDS011;31340;51.402;0.016;2022-08-24T20:28:43;4.10;;;1.95;;
44774;SDS011;31340;51.402;0.016;2022-08-24T20:31:14;8.13;;;2.10;;
44774;SDS011;31340;51.402;0.016;2022-08-24T20:33:43;3.72;;;1.75;;
44774;SDS011;31340;51.402;0.016;2022-08-24T20:36:24;3.35;;;1.60;;
44774;SDS011;31340;51.402;0.016;2022-08-24T20:39:05;11.93;;;2.45;;
44774;SDS011;31340;51.402;0.016;2022-08-24T20:41:35;2.33;;;1.67;;
44774;SDS011;31340;51.402;0.016;2022-08-24T20:44:03;3.30;;;1.77;;
44774;SDS011;31340;51.402;0.016;2022-08-24T20:46:30;3.45;;;2.00;;
44774;SDS011;31340;51.402;0.016;2022-08-24T20:48:58;2.60;;;1.63;;